Spriggs Payne Airport

Jump to: basic info | weather | frequencies | runways | comments

Related pages: nearby airports | nearby navaids | notams | map

Basic information (top)

Codes: MLW GLMR
Location: lon 6.289060, lat -10.758700, elev 25 ft / 8 m msl
Status: medium_airport
Scheduled airline service: yes
Links: Wikipedia Mobile

Weather (top)

Current conditions for Roberts International Airport 24nm (44km) E (rec'd 2014/11/21 15:30Z):

GLRB 211530Z 19007KT 9999 BKN016 FEW026CB 29/25 Q1009 RMK CB-SE/NW

Airport forecast for Roberts International Airport 24nm (44km) E (rec'd 2014/11/21 12:00Z):

TAF GLRB 211000Z 2112/2118 20010KT 9999 BKN018 FM 211500 24012KT 9000 TS/TSRA SCT006 BKN017 FEW027CB 
      BECMG 2120/2123 04004KT 9999 BKN014 
      TEMPO 2202/2207 00000KT 9999 SCT014 BKN100

Frequencies (top)

Verify before use: may be inaccurate or out of date.

APP: 124.5 MHz (ROBERTS APP)
TWR: 118.7 MHz (SPRIGGS TWR)

Runways (top)

05/23: 6,000 x 100 ft (1,829 x 30 m) — paved — lighted — threshold 05 displaced 200 ft (61 m) — threshold 23 displaced 200 ft (61 m)

Latest comments (top)

No comments yet for Spriggs Payne Airport

More... (top)

See also NOTAMs and nearby airports and navaids, or visit the Spriggs Payne Airport page at the main OurAirports website..